• Join FlightAware (Why Join?)
  • Login
  • US Flag 
07:52AM EDT


 

Airport Tracker/Info


-or-


 

Live Flight TrackerFlight Track Log ✈ N3681U ✈ 01-Apr-2014 ✈ KBJC - KLIT

Flight Track Log - Related Links

Times and Time Zones

All times are in EDT time to prevent confusion due to time zone crossing. See the N3681U flight status page for this flight to view local times or setup timezone preferences in your user account.

Time Position Orientation Groundspeed Altitude Reporting Facility
EDT Latitude Longitude Course Direction KTS MPH feet Rate Location/Type
04:36PM 39.9167 -105.1333 360° North 93 107 6,100  Level Denver TRACON
04:37PM 39.9333 -105.1333 360° North 107 123 6,700 900 Climbing Denver TRACON
04:38PM 39.9667 -105.1333 360° North 110 127 7,900 960 Climbing Denver TRACON
04:39PM 40.0000 -105.1000 37° Northeast 118 136 8,800 540 Climbing Denver TRACON
04:40PM 40.0167 -105.0500 66° East 165 190 9,000  Climbing Denver TRACON
04:41PM 40.0333 -105.0000 66° East 191 220 8,900  Descending Denver TRACON
04:42PM 40.0667 -104.9333 57° Northeast 193 222 9,000 120 Climbing Denver TRACON
04:43PM 40.0833 -104.8667 72° East 190 219 9,200 60 Climbing Denver TRACON
04:44PM 40.1000 -104.8000 72° East 194 223 9,200 -120 Level Denver TRACON
04:45PM 40.1000 -104.7333 90° East 194 223 9,000 -180 Descending Denver TRACON
04:46PM 40.1167 -104.6500 75° East 181 208 8,900  Descending Denver TRACON
04:47PM 40.1167 -104.5833 90° East 178 205 9,000  Climbing Denver TRACON
04:48PM 40.1000 -104.5500 123° Southeast 176 203 8,900 120 Descending Denver TRACON
04:49PM 40.0667 -104.4833 123° Southeast 165 190 9,300 600 Climbing Denver TRACON
04:50PM 40.0500 -104.4500 123° Southeast 131 151 10,200 840 Climbing Denver TRACON
04:51PM 40.0333 -104.4000 114° Southeast 130 150 11,100 720 Climbing Denver TRACON
04:53PM 39.9867 -104.3614 148° Southeast 125 144 12,100 660 Climbing Denver Center
04:54PM 39.9581 -104.3428 153° Southeast 121 139 12,900 480 Climbing Denver Center
04:55PM 39.9206 -104.3192 154° Southeast 140 161 13,100  Climbing Denver Center
04:56PM 39.8781 -104.2936 155° Southeast 162 186 13,000 -60 Descending Denver Center
04:57PM 39.8358 -104.2719 158° South 162 186 13,000  Level Denver Center
04:58PM 39.8003 -104.2264 135° Southeast 169 194 13,100  Climbing Denver Center
04:59PM 39.7697 -104.1731 127° Southeast 180 207 13,000  Descending Denver Center
05:00PM 39.7436 -104.1161 121° Southeast 183 211 13,100 240 Climbing Denver Center
05:01PM 39.7142 -104.0594 124° Southeast 179 206 13,500 300 Climbing Denver Center
05:02PM 39.6950 -104.0083 116° Southeast 161 185 13,800 480 Climbing Denver Center
05:03PM 39.6753 -103.9561 116° Southeast 150 173 14,500 480 Climbing Denver Center
05:04PM 39.6514 -103.9128 126° Southeast 148 170 14,800 420 Climbing Denver Center
05:05PM 39.6303 -103.8683 122° Southeast 146 168 15,400 480 Climbing Denver Center
05:06PM 39.6014 -103.8158 126° Southeast 165 190 15,900 480 Climbing Denver Center
05:07PM 39.5819 -103.7556 113° Southeast 179 206 16,500 540 Climbing Denver Center
05:08PM 39.5672 -103.6925 107° East 176 203 17,100 600 Climbing Denver Center
05:09PM 39.5586 -103.6264 100° East 183 211 17,800 840 Climbing Denver Center
05:10PM 39.5481 -103.5575 101° East 189 217 18,900 840 Climbing Denver Center
05:11PM 39.5372 -103.4886 102° East 194 223 19,600 540 Climbing Denver Center
05:13PM 39.5175 -103.4217 111° Southeast 198 228 20,100 600 Climbing Denver Center
05:14PM 39.4928 -103.3528 115° Southeast 204 235 20,900 420 Climbing Denver Center
05:15PM 39.4614 -103.2653 115° Southeast 223 257 21,000 -60 Climbing Denver Center
05:16PM 39.4331 -103.1794 113° Southeast 254 292 20,800 -60 Descending Denver Center
05:17PM 39.4031 -103.0956 115° Southeast 258 297 20,900  Climbing Denver Center
05:18PM 39.3711 -103.0158 117° Southeast 254 292 20,900  Level Denver Center
05:19PM 39.3431 -102.9406 116° Southeast 239 275 20,900  Level Denver Center
05:20PM 39.3167 -102.8633 114° Southeast 236 272 20,900  Level Denver Center
05:21PM 39.2814 -102.7692 116° Southeast 241 277 21,000  Climbing Denver Center
05:22PM 39.2519 -102.6897 116° Southeast 241 277 20,900 -60 Descending Denver Center
05:23PM 39.2242 -102.6128 115° Southeast 247 284 20,900  Level Denver Center
05:24PM 39.1981 -102.5364 114° Southeast 245 282 21,000 60 Climbing Denver Center
05:25PM 39.1661 -102.4494 115° Southeast 242 278 21,100 -60 Climbing Denver Center
05:26PM 39.1386 -102.3753 116° Southeast 241 277 20,900 -120 Descending Denver Center
05:27PM 39.1042 -102.2844 116° Southeast 251 289 20,900 -120 Level Denver Center
05:28PM 39.0758 -102.2097 116° Southeast 245 282 20,700 -60 Descending Denver Center
05:29PM 39.0439 -102.1186 114° Southeast 248 285 20,800 60 Climbing Denver Center
05:30PM 39.0161 -102.0400 114° Southeast 252 290 20,900  Climbing Denver Center
05:31PM 38.9844 -101.9492 114° Southeast 250 288 20,800 -60 Descending Denver Center
05:32PM 38.9536 -101.8794 120° Southeast 240 276 20,800 -120 Level Denver Center
05:33PM 38.9208 -101.7911 115° Southeast 241 277 20,600  Descending Denver Center
05:34PM 38.8919 -101.7142 116° Southeast 249 287 20,800 60 Climbing Denver Center
05:35PM 38.8633 -101.6408 117° Southeast 242 278 20,800 60 Level Denver Center
05:36PM 38.8317 -101.5536 115° Southeast 242 278 21,000  Climbing Denver Center
05:37PM 38.8036 -101.4811 116° Southeast 241 277 20,900 -120 Descending Denver Center
05:38PM 38.7700 -101.3933 116° Southeast 245 282 20,800 -60 Descending Denver Center
05:39PM 38.7422 -101.3183 115° Southeast 245 282 20,800  Level Denver Center
05:40PM 38.7103 -101.2364 117° Southeast 231 266 20,800  Level Denver Center
05:41PM 38.6836 -101.1653 116° Southeast 232 267 20,900  Climbing Denver Center
05:42PM 38.6514 -101.0797 116° Southeast 235 270 20,800  Descending Denver Center
05:43PM 38.6236 -101.0081 116° Southeast 236 272 20,900  Climbing Denver Center
05:44PM 38.5967 -100.9375 116° Southeast 233 268 20,900 60 Level Denver Center
05:46PM 38.5653 -100.8558 116° Southeast 228 262 21,100 60 Climbing Denver Center
05:47PM 38.5383 -100.7869 117° Southeast 228 262 21,100 -180 Level Denver Center
05:48PM 38.5100 -100.7139 116° Southeast 232 267 20,800 -180 Descending Kansas City Center
05:49PM 38.4775 -100.6314 117° Southeast 232 267 20,800  Level Kansas City Center
05:50PM 38.4494 -100.5592 116° Southeast 233 268 20,900  Climbing Kansas City Center
05:51PM 38.4178 -100.4769 116° Southeast 233 268 20,800 -60 Descending Kansas City Center
05:52PM 38.3908 -100.4089 117° Southeast 229 264 20,800 -60 Level Kansas City Center
05:53PM 38.3592 -100.3303 117° Southeast 225 259 20,700  Descending Kansas City Center
05:54PM 38.3328 -100.2639 117° Southeast 224 258 20,900 180 Climbing Kansas City Center
05:55PM 38.3028 -100.1842 116° Southeast 224 258 21,100 60 Climbing Kansas City Center
05:56PM 38.2747 -100.1156 117° Southeast 224 258 21,100 -120 Level Kansas City Center
05:57PM 38.2492 -100.0483 116° Southeast 224 258 20,900 -120 Descending Kansas City Center
05:58PM 38.2161 -99.9686 118° Southeast 225 259 20,900  Level Kansas City Center
05:59PM 38.1892 -99.9011 117° Southeast 225 259 20,900  Level Kansas City Center
06:00PM 38.1594 -99.8242 116° Southeast 223 257 20,900  Level Kansas City Center
06:01PM 38.1317 -99.7569 118° Southeast 223 257 20,900 120 Level Kansas City Center
06:02PM 38.0997 -99.6786 117° Southeast 223 257 21,200  Climbing Kansas City Center
06:03PM 38.0728 -99.6122 117° Southeast 223 257 21,000 -240 Descending Kansas City Center
06:04PM 38.0408 -99.5314 117° Southeast 223 257 20,800 -60 Descending Kansas City Center
06:05PM 38.0147 -99.4667 117° Southeast 224 258 20,900  Climbing Kansas City Center
06:06PM 37.9864 -99.3961 117° Southeast 224 258 20,900  Level Kansas City Center
06:07PM 37.9569 -99.3256 118° Southeast 224 258 20,900 60 Level Kansas City Center
06:08PM 37.9231 -99.2411 117° Southeast 224 258 21,100  Climbing Kansas City Center
06:09PM 37.8956 -99.1719 117° Southeast 224 258 21,000 -240 Descending Kansas City Center
06:10PM 37.8667 -99.0992 117° Southeast 225 259 20,700  Descending Kansas City Center
06:11PM 37.8361 -99.0275 118° Southeast 227 261 21,000 60 Climbing Kansas City Center
06:12PM 37.8083 -98.9597 117° Southeast 226 260 20,900 -60 Descending Kansas City Center
06:13PM 37.7747 -98.8769 117° Southeast 224 258 20,900  Level Kansas City Center
06:14PM 37.7475 -98.8092 117° Southeast 221 254 20,900  Level Kansas City Center
06:15PM 37.7175 -98.7397 119° Southeast 222 255 21,000 -180 Climbing Kansas City Center
06:17PM 37.6889 -98.6703 117° Southeast 222 255 20,600 -60 Descending Kansas City Center
06:18PM 37.6617 -98.6008 116° Southeast 225 259 20,900 240 Climbing Kansas City Center
06:19PM 37.6342 -98.5386 119° Southeast 211 243 21,200 120 Climbing Kansas City Center
06:20PM 37.6025 -98.4628 118° Southeast 209 241 21,200 -240 Level Kansas City Center
06:21PM 37.5733 -98.3950 118° Southeast 214 246 20,800 -240 Descending Kansas City Center
06:22PM 37.5464 -98.3214 115° Southeast 226 260 20,800  Level Kansas City Center
06:23PM 37.5233 -98.2461 111° Southeast 230 265 20,900  Climbing Kansas City Center
06:24PM 37.4975 -98.1747 115° Southeast 229 264 20,800 -60 Descending Kansas City Center
06:25PM 37.4622 -98.0919 118° Southeast 229 264 20,800  Level Kansas City Center
06:26PM 37.4306 -98.0264 121° Southeast 226 260 20,800  Level Kansas City Center
06:27PM 37.4008 -97.9606 120° Southeast 223 257 20,800  Level Kansas City Center
06:28PM 37.3675 -97.8958 123° Southeast 223 257 20,800  Level Kansas City Center
06:29PM 37.3353 -97.8317 122° Southeast 222 255 20,800  Level Kansas City Center
06:30PM 37.3056 -97.7656 119° Southeast 222 255 20,900 60 Climbing Kansas City Center
06:31PM 37.2694 -97.6858 120° Southeast 221 254 21,000  Climbing Kansas City Center
06:32PM 37.2394 -97.6228 121° Southeast 216 249 20,900 -60 Descending Kansas City Center
06:33PM 37.2094 -97.5544 119° Southeast 218 251 20,900  Level Kansas City Center
06:34PM 37.1781 -97.4897 121° Southeast 218 251 20,900 -60 Level Kansas City Center
06:35PM 37.1436 -97.4281 125° Southeast 218 251 20,800  Descending Kansas City Center
06:36PM 37.1075 -97.3492 120° Southeast 218 251 20,900  Climbing Kansas City Center
06:37PM 37.0783 -97.2792 118° Southeast 222 255 20,900  Level Kansas City Center
06:38PM 37.0467 -97.2122 121° Southeast 223 257 20,900  Level Kansas City Center
06:39PM 37.0156 -97.1444 120° Southeast 223 257 20,900 -60 Level Kansas City Center
06:40PM 36.9825 -97.0792 122° Southeast 223 257 20,800  Descending Kansas City Center
06:41PM 36.9492 -97.0133 122° Southeast 223 257 20,900  Climbing Kansas City Center
06:42PM 36.9103 -96.9344 122° Southeast 223 257 20,800 -60 Descending Kansas City Center
06:43PM 36.8806 -96.8667 119° Southeast 223 257 20,800  Level Kansas City Center
06:44PM 36.8469 -96.7969 121° Southeast 222 255 20,900  Climbing Kansas City Center
06:45PM 36.8228 -96.7203 111° Southeast 226 260 20,800 -60 Descending Kansas City Center
06:46PM 36.7986 -96.6472 112° Southeast 227 261 20,800  Level Kansas City Center
06:48PM 36.7744 -96.5736 112° Southeast 228 262 20,900  Climbing Kansas City Center
06:49PM 36.7478 -96.5033 115° Southeast 228 262 20,800  Descending Kansas City Center
06:50PM 36.7219 -96.4319 114° Southeast 228 262 20,900 60 Climbing Kansas City Center
06:51PM 36.6936 -96.3619 117° Southeast 227 261 21,000  Climbing Kansas City Center
06:52PM 36.6647 -96.2925 117° Southeast 227 261 21,000  Level Kansas City Center
06:53PM 36.6258 -96.2106 121° Southeast 227 261 21,000 -60 Level Kansas City Center
06:54PM 36.5972 -96.1400 117° Southeast 227 261 20,900  Descending Kansas City Center
06:55PM 36.5678 -96.0697 118° Southeast 227 261 21,000  Climbing Kansas City Center
06:56PM 36.5392 -95.9989 117° Southeast 228 262 21,000  Level Kansas City Center
06:57PM 36.5097 -95.9281 117° Southeast 228 262 21,000 -60 Level Kansas City Center
06:58PM 36.4803 -95.8558 117° Southeast 228 262 20,900 -120 Descending Kansas City Center
06:59PM 36.4408 -95.7725 120° Southeast 232 267 20,800  Descending Kansas City Center
07:00PM 36.4106 -95.7003 117° Southeast 232 267 20,900  Climbing Kansas City Center
07:01PM 36.3825 -95.6300 116° Southeast 231 266 20,900  Level Kansas City Center
07:02PM 36.3544 -95.5597 116° Southeast 231 266 21,000  Climbing Kansas City Center
07:03PM 36.3250 -95.4900 118° Southeast 231 266 21,000 -120 Level Kansas City Center
07:04PM 36.2944 -95.4214 119° Southeast 231 266 20,800 -60 Descending Kansas City Center
07:05PM 36.2617 -95.3522 120° Southeast 231 266 20,900  Climbing Kansas City Center
07:06PM 36.2267 -95.2703 118° Southeast 230 265 20,900  Level Kansas City Center
07:07PM 36.1983 -95.2017 117° Southeast 228 262 20,900  Level Kansas City Center
07:08PM 36.1692 -95.1331 118° Southeast 227 261 20,900  Level Kansas City Center
07:09PM 36.1428 -95.0689 117° Southeast 227 261 20,900  Level Kansas City Center
07:10PM 36.1000 -94.9928 125° Southeast 227 261 20,900  Level Kansas City Center
07:11PM 36.0650 -94.9272 123° Southeast 227 261 20,900  Level Kansas City Center
07:12PM 36.0353 -94.8608 119° Southeast 225 259 21,000  Climbing Kansas City Center
07:13PM 36.0039 -94.7950 120° Southeast 224 258 21,000 -60 Level Kansas City Center
07:14PM 35.9719 -94.7281 121° Southeast 224 258 20,900 -120 Descending Kansas City Center
07:15PM 35.9406 -94.6594 119° Southeast 225 259 20,800  Descending Kansas City Center
07:16PM 35.9136 -94.6050 121° Southeast 227 261 20,900  Climbing Memphis Center
07:17PM 35.8836 -94.5403 120° Southeast 223 257 20,800 -60 Descending Memphis Center
07:18PM 35.8511 -94.4731 121° Southeast 223 257 20,800  Level Memphis Center
07:19PM 35.8125 -94.3942 121° Southeast 223 257 20,900  Climbing Memphis Center
07:20PM 35.7800 -94.3283 121° Southeast 223 257 20,900  Level Memphis Center
07:21PM 35.7450 -94.2639 124° Southeast 224 258 20,900  Level Memphis Center
07:22PM 35.7089 -94.2022 126° Southeast 224 258 20,900  Level Memphis Center
07:23PM 35.6733 -94.1389 125° Southeast 224 258 20,900  Level Memphis Center
07:24PM 35.6386 -94.0783 125° Southeast 222 255 20,900  Level Memphis Center
07:25PM 35.6072 -94.0103 120° Southeast 223 257 20,900  Level Memphis Center
07:26PM 35.5719 -93.9300 118° Southeast 223 257 20,900  Level Memphis Center
07:27PM 35.5419 -93.8625 119° Southeast 223 257 20,900  Level Memphis Center
07:29PM 35.5103 -93.7969 121° Southeast 224 258 20,900  Level Memphis Center
07:30PM 35.4775 -93.7344 123° Southeast 222 255 21,000  Climbing Memphis Center
07:31PM 35.4467 -93.6692 120° Southeast 221 254 20,900 -60 Descending Memphis Center
07:32PM 35.4086 -93.5900 121° Southeast 222 255 20,900 -180 Level Memphis Center
07:33PM 35.3800 -93.5244 118° Southeast 222 255 20,600 -540 Descending Memphis Center
07:34PM 35.3433 -93.4561 123° Southeast 232 267 19,900 -780 Descending Memphis Center
07:35PM 35.3083 -93.3842 121° Southeast 240 276 19,000 -1,020 Descending Memphis Center
07:36PM 35.2706 -93.3097 122° Southeast 249 287 17,900 -960 Descending Memphis Center
07:37PM 35.2358 -93.2417 122° Southeast 242 278 17,100 -840 Descending Memphis Center
07:38PM 35.2014 -93.1742 122° Southeast 239 275 16,200 -960 Descending Memphis Center
07:39PM 35.1606 -93.0922 121° Southeast 238 274 15,100 -960 Descending Memphis Center
07:40PM 35.1272 -93.0233 121° Southeast 237 273 14,300 -900 Descending Memphis Center
07:41PM 35.0967 -92.9578 120° Southeast 238 274 13,300 -1,080 Descending Memphis Center
07:41PM 35.0806 -92.9261 122° Southeast 244 281 12,900 -1,020 Descending Memphis Center
07:42PM 35.0667 -92.8914 116° Southeast 243 280 12,500 -960 Descending Memphis Center
07:42PM 35.0583 -92.8728 119° Southeast 238 274 12,200 -1,320 Descending Memphis Center
07:43PM 35.0325 -92.8194 121° Southeast 232 267 11,200 -1,200 Descending Memphis Center
07:43PM 35.0267 -92.8053 117° Southeast 237 273 11,000 -1,020 Descending Memphis Center
07:44PM 35.0028 -92.7525 119° Southeast 227 261 10,200 -1,020 Descending Memphis Center
07:44PM 34.9972 -92.7386 116° Southeast 228 262 10,000 -1,020 Descending Memphis Center
07:45PM 34.9692 -92.6886 124° Southeast 215 247 9,200 -1,020 Descending Memphis Center
07:45PM 34.9650 -92.6778 115° Southeast 219 252 9,000 -900 Descending Memphis Center
07:46PM 34.9539 -92.6208 103° East 219 252 8,300 -780 Descending Memphis Center
07:46PM 34.9511 -92.6056 103° East 220 253 8,200 -840 Descending Memphis Center
07:47PM 34.9444 -92.5453 98° East 215 247 7,500 -1,020 Descending Memphis Center
07:47PM 34.9419 -92.5203 97° East 216 249 7,200 -840 Descending Memphis Center
07:48PM 34.9375 -92.4747 97° East 215 247 6,700 -720 Descending Memphis Center
07:48PM 34.9358 -92.4483 94° East 215 247 6,500 -540 Descending Memphis Center
07:49PM 34.9325 -92.4042 95° East 202 232 6,200 -540 Descending Memphis Center
07:49PM 34.9314 -92.3806 93° East 209 241 6,000 -600 Descending Memphis Center
07:50PM 34.9278 -92.3383 96° East 200 230 5,600 -600 Descending Memphis Center
07:50PM 34.9275 -92.3131 91° East 205 236 5,400 -600 Descending Memphis Center
07:51PM 34.9269 -92.2700 91° East 190 219 5,000 -600 Descending Memphis Center
07:51PM 34.9236 -92.2514 102° East 195 224 4,800 -540 Descending Memphis Center
07:52PM 34.8983 -92.2361 154° Southeast 145 167 4,500 -420 Descending Memphis Center
07:52PM 34.8864 -92.2303 158° South 161 185 4,400 -300 Descending Memphis Center
07:53PM 34.8625 -92.2333 186° South 118 136 4,200 -720 Descending Memphis Center
07:53PM 34.8442 -92.2328 179° South 135 155 3,700 -1,020 Descending Memphis Center
07:54PM 34.8208 -92.2361 187° South 139 160 3,200 -1,080 Descending Memphis Center
07:54PM 34.8064 -92.2356 178° South 135 155 2,600 -1,320 Descending Memphis Center
07:55PM 34.7917 -92.2378 187° South 110 127 1,900 -1,260 Descending Memphis Center
07:55PM 34.7769 -92.2400 187° South 122 140 1,300 -1,020 Descending Memphis Center
07:56PM 34.7644 -92.2369 169° South 89 102 900 -420 Descending Memphis Center
07:56PM 34.7467 -92.2408 190° South 112 129 900 -540 Level Memphis Center
07:57PM 34.7436 -92.2383 146° Southeast 71 82 400 -1,200 Descending Memphis Center
07:59PM 34.7294 -92.2248 161° South  Level Estimated